createdAt,value
2022-10-17T19:22:36.865Z,59.28
2022-10-17T19:25:05.908Z,59.55
2022-10-17T19:27:34.018Z,59.59
2022-10-17T19:30:02.723Z,60.38
2022-10-17T19:32:32.914Z,60.25
2022-10-17T19:35:01.607Z,60.26
2022-10-17T19:37:30.958Z,60.51
2022-10-17T19:39:59.415Z,60.24
2022-10-17T19:42:27.609Z,60.60
2022-10-17T19:44:56.083Z,61.04
2022-10-17T19:47:24.363Z,61.14
2022-10-17T19:49:52.851Z,60.84
2022-10-17T19:52:21.574Z,61.86
2022-10-17T19:54:50.292Z,61.56
2022-10-17T19:57:18.943Z,62.60
2022-10-17T19:59:49.311Z,62.64
2022-10-17T20:02:20.877Z,62.69
2022-10-17T20:04:54.592Z,62.96
2022-10-17T20:07:34.710Z,62.23
2022-10-17T20:10:03.303Z,62.57
2022-10-17T20:12:31.613Z,62.93
2022-10-17T20:15:00.415Z,62.78
2022-10-17T20:17:28.797Z,61.75
2022-10-17T20:19:57.569Z,62.69
2022-10-17T20:22:25.950Z,62.66
2022-10-17T20:24:54.259Z,63.20
2022-10-17T20:27:25.528Z,61.54
2022-10-17T20:30:01.895Z,63.82
2022-10-17T20:32:39.426Z,63.14
2022-10-17T20:35:08.851Z,63.67
2022-10-17T20:37:41.587Z,63.86
2022-10-17T20:43:01.819Z,64.19
2022-10-17T20:45:45.166Z,64.42
2022-10-17T20:48:19.033Z,65.14
2022-10-17T20:50:47.401Z,64.93
2022-10-17T20:53:36.461Z,64.84
2022-10-17T20:56:08.488Z,64.57
2022-10-17T20:58:36.647Z,65.51
2022-10-17T21:01:07.519Z,64.30
2022-10-17T21:03:39.943Z,64.60
2022-10-17T21:08:39.199Z,64.31
2022-10-17T21:11:12.271Z,65.37
2022-10-17T21:13:41.009Z,64.96
2022-10-17T21:16:15.871Z,64.57
2022-10-17T21:18:45.008Z,64.95
2022-10-17T21:21:17.684Z,64.55
2022-10-17T21:23:47.649Z,65.01
2022-10-17T21:26:18.089Z,65.13
2022-10-17T21:28:48.131Z,64.95
2022-10-17T21:31:18.101Z,64.58
2022-10-17T21:33:49.851Z,64.95
2022-10-17T21:36:19.390Z,63.96
2022-10-17T21:38:50.661Z,64.40
2022-10-17T21:41:21.129Z,65.12
2022-10-17T21:43:53.269Z,65.53
2022-10-17T21:46:22.609Z,65.31
2022-10-17T21:48:52.396Z,65.94
2022-10-17T21:51:26.227Z,65.28
2022-10-17T21:53:54.969Z,65.65
2022-10-17T21:56:28.340Z,66.63
2022-10-17T21:58:58.539Z,66.21
2022-10-17T22:01:32.651Z,66.08
2022-10-17T22:04:03.898Z,65.62
2022-10-17T22:06:41.216Z,65.10
2022-10-17T22:09:17.136Z,65.08
2022-10-17T22:11:48.287Z,66.37
2022-10-17T22:14:18.602Z,66.10
2022-10-17T22:16:47.963Z,66.26
2022-10-17T22:19:19.740Z,66.40
2022-10-17T22:21:48.094Z,66.50
2022-10-17T22:24:18.368Z,66.42
2022-10-17T22:26:46.804Z,67.01
2022-10-17T22:29:15.257Z,66.55
2022-10-17T22:31:43.918Z,66.93
2022-10-17T22:34:14.399Z,66.92
2022-10-17T22:36:43.258Z,67.98
2022-10-17T22:39:11.919Z,68.53
2022-10-17T22:41:40.092Z,68.21
2022-10-17T22:44:08.205Z,68.00
2022-10-17T22:46:36.698Z,66.58
2022-10-17T22:49:04.726Z,66.57
2022-10-17T22:51:32.896Z,67.23
2022-10-17T22:54:00.974Z,66.83
2022-10-17T22:56:29.151Z,67.08
2022-10-17T22:58:57.345Z,66.91
2022-10-17T23:01:26.070Z,66.85
2022-10-17T23:03:54.673Z,67.55
2022-10-17T23:06:24.270Z,66.69
2022-10-17T23:08:52.634Z,66.49
2022-10-17T23:11:21.193Z,66.96
2022-10-17T23:13:49.127Z,67.21
2022-10-17T23:16:17.405Z,67.50
2022-10-17T23:18:45.483Z,67.50
2022-10-17T23:21:13.744Z,66.04
2022-10-17T23:23:43.012Z,66.23
2022-10-17T23:26:14.419Z,66.10
2022-10-17T23:28:43.162Z,67.51
2022-10-17T23:31:17.634Z,67.60
2022-10-17T23:33:47.507Z,66.79
2022-10-17T23:36:18.995Z,66.41
2022-10-17T23:38:48.180Z,66.66
2022-10-17T23:41:16.968Z,67.12
2022-10-17T23:43:45.030Z,66.11
2022-10-17T23:46:13.754Z,66.14
2022-10-17T23:48:42.018Z,67.35
2022-10-17T23:51:11.137Z,68.09
2022-10-17T23:53:40.509Z,68.26
2022-10-17T23:56:10.419Z,67.84
2022-10-17T23:58:39.311Z,68.10
